sensor_id;sensor_type;location;lat;lon;timestamp;P1;durP1;ratioP1;P2;durP2;ratioP2
79261;SDS011;68699;48.220;16.358;2023-07-24T00:00:57;5.00;;;4.60;;
79261;SDS011;68699;48.220;16.358;2023-07-24T00:03:23;6.10;;;5.17;;
79261;SDS011;68699;48.220;16.358;2023-07-24T00:05:49;6.20;;;4.63;;
79261;SDS011;68699;48.220;16.358;2023-07-24T00:08:15;5.63;;;4.97;;
79261;SDS011;68699;48.220;16.358;2023-07-24T00:10:41;7.37;;;5.00;;
79261;SDS011;68699;48.220;16.358;2023-07-24T00:13:07;5.73;;;5.10;;
79261;SDS011;68699;48.220;16.358;2023-07-24T00:15:33;5.43;;;4.90;;
79261;SDS011;68699;48.220;16.358;2023-07-24T00:17:59;5.33;;;4.83;;
79261;SDS011;68699;48.220;16.358;2023-07-24T00:20:25;5.27;;;4.77;;
79261;SDS011;68699;48.220;16.358;2023-07-24T00:22:51;5.47;;;4.97;;
79261;SDS011;68699;48.220;16.358;2023-07-24T00:25:17;5.37;;;4.63;;
79261;SDS011;68699;48.220;16.358;2023-07-24T00:27:44;4.93;;;4.53;;
79261;SDS011;68699;48.220;16.358;2023-07-24T00:30:10;6.50;;;5.20;;
79261;SDS011;68699;48.220;16.358;2023-07-24T00:32:36;5.47;;;4.97;;
79261;SDS011;68699;48.220;16.358;2023-07-24T00:35:03;5.60;;;5.10;;
79261;SDS011;68699;48.220;16.358;2023-07-24T00:37:29;5.63;;;5.13;;
79261;SDS011;68699;48.220;16.358;2023-07-24T00:39:55;5.40;;;4.90;;
79261;SDS011;68699;48.220;16.358;2023-07-24T00:42:21;6.20;;;5.03;;
79261;SDS011;68699;48.220;16.358;2023-07-24T00:44:47;5.33;;;4.83;;
79261;SDS011;68699;48.220;16.358;2023-07-24T00:47:13;4.63;;;4.23;;
79261;SDS011;68699;48.220;16.358;2023-07-24T00:49:39;5.43;;;4.93;;
79261;SDS011;68699;48.220;16.358;2023-07-24T00:52:06;5.43;;;4.63;;
79261;SDS011;68699;48.220;16.358;2023-07-24T00:54:32;4.90;;;4.50;;
79261;SDS011;68699;48.220;16.358;2023-07-24T00:56:59;5.47;;;4.97;;
79261;SDS011;68699;48.220;16.358;2023-07-24T00:59:26;4.90;;;4.50;;
79261;SDS011;68699;48.220;16.358;2023-07-24T01:01:52;5.70;;;5.20;;
79261;SDS011;68699;48.220;16.358;2023-07-24T01:04:18;5.70;;;4.73;;
79261;SDS011;68699;48.220;16.358;2023-07-24T01:06:44;5.17;;;4.70;;
79261;SDS011;68699;48.220;16.358;2023-07-24T01:09:10;5.60;;;5.03;;
79261;SDS011;68699;48.220;16.358;2023-07-24T01:11:37;5.50;;;5.00;;
79261;SDS011;68699;48.220;16.358;2023-07-24T01:14:09;5.20;;;4.80;;
79261;SDS011;68699;48.220;16.358;2023-07-24T01:16:41;5.50;;;4.90;;
79261;SDS011;68699;48.220;16.358;2023-07-24T01:24:37;5.07;;;4.57;;
79261;SDS011;68699;48.220;16.358;2023-07-24T01:27:09;6.00;;;5.03;;
79261;SDS011;68699;48.220;16.358;2023-07-24T01:29:35;5.73;;;4.97;;
79261;SDS011;68699;48.220;16.358;2023-07-24T01:32:01;5.50;;;4.90;;
79261;SDS011;68699;48.220;16.358;2023-07-24T01:34:27;5.87;;;5.13;;
79261;SDS011;68699;48.220;16.358;2023-07-24T01:36:53;5.37;;;4.87;;
79261;SDS011;68699;48.220;16.358;2023-07-24T01:39:19;5.27;;;4.80;;
79261;SDS011;68699;48.220;16.358;2023-07-24T01:41:45;5.20;;;4.70;;
79261;SDS011;68699;48.220;16.358;2023-07-24T01:44:14;5.17;;;4.70;;
79261;SDS011;68699;48.220;16.358;2023-07-24T01:46:40;5.90;;;5.40;;
79261;SDS011;68699;48.220;16.358;2023-07-24T01:49:06;5.73;;;5.23;;
79261;SDS011;68699;48.220;16.358;2023-07-24T01:51:32;5.40;;;4.90;;
79261;SDS011;68699;48.220;16.358;2023-07-24T01:53:58;5.80;;;5.30;;
79261;SDS011;68699;48.220;16.358;2023-07-24T01:56:24;5.50;;;4.97;;
79261;SDS011;68699;48.220;16.358;2023-07-24T01:58:50;5.73;;;5.13;;
79261;SDS011;68699;48.220;16.358;2023-07-24T02:01:16;5.70;;;4.93;;
79261;SDS011;68699;48.220;16.358;2023-07-24T02:03:42;5.57;;;5.07;;
79261;SDS011;68699;48.220;16.358;2023-07-24T02:06:08;5.57;;;5.07;;
79261;SDS011;68699;48.220;16.358;2023-07-24T02:08:34;5.90;;;5.30;;
79261;SDS011;68699;48.220;16.358;2023-07-24T02:11:00;7.83;;;5.43;;
79261;SDS011;68699;48.220;16.358;2023-07-24T02:13:26;5.77;;;5.20;;
79261;SDS011;68699;48.220;16.358;2023-07-24T02:15:52;6.23;;;4.87;;
79261;SDS011;68699;48.220;16.358;2023-07-24T02:18:18;6.10;;;5.50;;
79261;SDS011;68699;48.220;16.358;2023-07-24T02:20:48;6.73;;;5.47;;
79261;SDS011;68699;48.220;16.358;2023-07-24T02:23:14;6.10;;;5.50;;
79261;SDS011;68699;48.220;16.358;2023-07-24T02:25:40;6.87;;;6.27;;
79261;SDS011;68699;48.220;16.358;2023-07-24T02:28:08;6.37;;;5.77;;
79261;SDS011;68699;48.220;16.358;2023-07-24T02:30:37;5.93;;;5.30;;
79261;SDS011;68699;48.220;16.358;2023-07-24T02:33:03;6.20;;;5.60;;
79261;SDS011;68699;48.220;16.358;2023-07-24T02:35:29;6.40;;;5.80;;
79261;SDS011;68699;48.220;16.358;2023-07-24T02:37:55;5.90;;;5.40;;
79261;SDS011;68699;48.220;16.358;2023-07-24T02:40:21;6.30;;;5.70;;
79261;SDS011;68699;48.220;16.358;2023-07-24T02:42:47;6.60;;;5.97;;
79261;SDS011;68699;48.220;16.358;2023-07-24T02:45:13;6.27;;;5.67;;
79261;SDS011;68699;48.220;16.358;2023-07-24T02:47:39;6.77;;;6.00;;
79261;SDS011;68699;48.220;16.358;2023-07-24T02:50:07;6.37;;;5.83;;
79261;SDS011;68699;48.220;16.358;2023-07-24T02:52:33;6.73;;;6.13;;
79261;SDS011;68699;48.220;16.358;2023-07-24T02:54:59;6.50;;;5.90;;
79261;SDS011;68699;48.220;16.358;2023-07-24T02:57:25;6.67;;;6.07;;
79261;SDS011;68699;48.220;16.358;2023-07-24T02:59:51;6.90;;;6.30;;
79261;SDS011;68699;48.220;16.358;2023-07-24T03:02:17;6.50;;;5.90;;
79261;SDS011;68699;48.220;16.358;2023-07-24T03:04:43;6.40;;;5.80;;
79261;SDS011;68699;48.220;16.358;2023-07-24T03:07:09;6.67;;;6.07;;
79261;SDS011;68699;48.220;16.358;2023-07-24T03:09:35;6.23;;;5.73;;
79261;SDS011;68699;48.220;16.358;2023-07-24T03:12:01;6.20;;;5.60;;
79261;SDS011;68699;48.220;16.358;2023-07-24T03:14:27;6.20;;;5.60;;
79261;SDS011;68699;48.220;16.358;2023-07-24T03:16:53;6.40;;;5.80;;
79261;SDS011;68699;48.220;16.358;2023-07-24T03:19:19;6.87;;;6.17;;
79261;SDS011;68699;48.220;16.358;2023-07-24T03:21:45;6.97;;;6.27;;
79261;SDS011;68699;48.220;16.358;2023-07-24T03:24:12;6.57;;;5.97;;
79261;SDS011;68699;48.220;16.358;2023-07-24T03:26:38;6.27;;;5.77;;
79261;SDS011;68699;48.220;16.358;2023-07-24T03:29:04;6.70;;;5.97;;
79261;SDS011;68699;48.220;16.358;2023-07-24T03:31:30;7.13;;;6.00;;
79261;SDS011;68699;48.220;16.358;2023-07-24T03:33:56;6.83;;;5.90;;
79261;SDS011;68699;48.220;16.358;2023-07-24T03:36:22;6.00;;;5.40;;
79261;SDS011;68699;48.220;16.358;2023-07-24T03:38:48;6.20;;;5.67;;
79261;SDS011;68699;48.220;16.358;2023-07-24T03:41:14;6.33;;;5.73;;
79261;SDS011;68699;48.220;16.358;2023-07-24T03:43:40;6.40;;;5.87;;
79261;SDS011;68699;48.220;16.358;2023-07-24T03:46:06;6.10;;;5.40;;
79261;SDS011;68699;48.220;16.358;2023-07-24T03:48:32;6.43;;;5.33;;
79261;SDS011;68699;48.220;16.358;2023-07-24T03:51:00;6.33;;;5.73;;
79261;SDS011;68699;48.220;16.358;2023-07-24T03:53:26;6.57;;;6.07;;
79261;SDS011;68699;48.220;16.358;2023-07-24T03:55:52;7.00;;;6.30;;
79261;SDS011;68699;48.220;16.358;2023-07-24T03:58:18;7.07;;;6.37;;
79261;SDS011;68699;48.220;16.358;2023-07-24T04:00:44;6.63;;;6.03;;
79261;SDS011;68699;48.220;16.358;2023-07-24T04:03:10;6.63;;;5.73;;
79261;SDS011;68699;48.220;16.358;2023-07-24T04:05:36;6.03;;;5.50;;
79261;SDS011;68699;48.220;16.358;2023-07-24T04:08:03;6.43;;;5.83;;
79261;SDS011;68699;48.220;16.358;2023-07-24T04:10:29;7.23;;;6.07;;
79261;SDS011;68699;48.220;16.358;2023-07-24T04:12:56;6.60;;;5.90;;
79261;SDS011;68699;48.220;16.358;2023-07-24T04:15:22;7.00;;;5.50;;
79261;SDS011;68699;48.220;16.358;2023-07-24T04:17:48;6.00;;;5.40;;
79261;SDS011;68699;48.220;16.358;2023-07-24T04:20:14;6.57;;;5.87;;
79261;SDS011;68699;48.220;16.358;2023-07-24T04:22:40;6.30;;;5.70;;
79261;SDS011;68699;48.220;16.358;2023-07-24T04:25:06;6.30;;;5.77;;
79261;SDS011;68699;48.220;16.358;2023-07-24T04:27:32;7.30;;;6.60;;
79261;SDS011;68699;48.220;16.358;2023-07-24T04:29:58;7.67;;;6.30;;
79261;SDS011;68699;48.220;16.358;2023-07-24T04:32:26;6.67;;;5.97;;
79261;SDS011;68699;48.220;16.358;2023-07-24T04:34:52;6.73;;;6.13;;
79261;SDS011;68699;48.220;16.358;2023-07-24T04:37:18;6.70;;;6.10;;
79261;SDS011;68699;48.220;16.358;2023-07-24T04:39:44;6.63;;;6.03;;
79261;SDS011;68699;48.220;16.358;2023-07-24T04:42:10;7.13;;;6.43;;
79261;SDS011;68699;48.220;16.358;2023-07-24T04:44:36;7.20;;;6.50;;
79261;SDS011;68699;48.220;16.358;2023-07-24T04:47:02;6.73;;;6.13;;
79261;SDS011;68699;48.220;16.358;2023-07-24T04:49:29;7.33;;;6.63;;
79261;SDS011;68699;48.220;16.358;2023-07-24T04:51:55;7.50;;;6.77;;
79261;SDS011;68699;48.220;16.358;2023-07-24T04:54:21;8.27;;;7.43;;
79261;SDS011;68699;48.220;16.358;2023-07-24T04:56:47;8.30;;;7.10;;
79261;SDS011;68699;48.220;16.358;2023-07-24T04:59:13;7.43;;;6.80;;
79261;SDS011;68699;48.220;16.358;2023-07-24T05:01:39;8.03;;;7.20;;
79261;SDS011;68699;48.220;16.358;2023-07-24T05:04:05;7.87;;;7.17;;
79261;SDS011;68699;48.220;16.358;2023-07-24T05:06:31;10.63;;;7.87;;
79261;SDS011;68699;48.220;16.358;2023-07-24T05:08:57;7.57;;;6.87;;
79261;SDS011;68699;48.220;16.358;2023-07-24T05:11:23;9.03;;;7.87;;
79261;SDS011;68699;48.220;16.358;2023-07-24T05:13:49;7.87;;;7.07;;
79261;SDS011;68699;48.220;16.358;2023-07-24T05:16:15;8.73;;;7.40;;
79261;SDS011;68699;48.220;16.358;2023-07-24T05:18:41;7.73;;;6.97;;
79261;SDS011;68699;48.220;16.358;2023-07-24T05:21:07;8.47;;;7.67;;
79261;SDS011;68699;48.220;16.358;2023-07-24T05:23:33;8.43;;;7.57;;
79261;SDS011;68699;48.220;16.358;2023-07-24T05:25:59;8.30;;;7.40;;
79261;SDS011;68699;48.220;16.358;2023-07-24T05:28:26;9.43;;;7.77;;
79261;SDS011;68699;48.220;16.358;2023-07-24T05:30:52;9.70;;;7.30;;
79261;SDS011;68699;48.220;16.358;2023-07-24T05:33:18;9.73;;;7.43;;
79261;SDS011;68699;48.220;16.358;2023-07-24T05:35:45;8.83;;;8.00;;
79261;SDS011;68699;48.220;16.358;2023-07-24T05:38:11;9.33;;;7.63;;
79261;SDS011;68699;48.220;16.358;2023-07-24T05:40:37;10.50;;;7.80;;
79261;SDS011;68699;48.220;16.358;2023-07-24T05:43:03;9.97;;;7.20;;
79261;SDS011;68699;48.220;16.358;2023-07-24T05:45:29;10.47;;;7.70;;
79261;SDS011;68699;48.220;16.358;2023-07-24T05:47:55;10.70;;;8.43;;
79261;SDS011;68699;48.220;16.358;2023-07-24T05:50:21;12.63;;;7.83;;
79261;SDS011;68699;48.220;16.358;2023-07-24T05:52:47;9.77;;;7.57;;
79261;SDS011;68699;48.220;16.358;2023-07-24T05:55:13;7.90;;;7.10;;
79261;SDS011;68699;48.220;16.358;2023-07-24T05:57:39;9.87;;;8.00;;
79261;SDS011;68699;48.220;16.358;2023-07-24T06:00:05;8.33;;;7.43;;
79261;SDS011;68699;48.220;16.358;2023-07-24T06:02:31;7.77;;;7.03;;
79261;SDS011;68699;48.220;16.358;2023-07-24T06:04:57;9.37;;;7.80;;
79261;SDS011;68699;48.220;16.358;2023-07-24T06:07:23;9.10;;;6.90;;
79261;SDS011;68699;48.220;16.358;2023-07-24T06:09:49;8.87;;;7.93;;
79261;SDS011;68699;48.220;16.358;2023-07-24T06:12:15;8.63;;;7.37;;
79261;SDS011;68699;48.220;16.358;2023-07-24T06:14:41;8.43;;;7.23;;
79261;SDS011;68699;48.220;16.358;2023-07-24T06:17:07;8.90;;;7.70;;
79261;SDS011;68699;48.220;16.358;2023-07-24T06:19:36;9.20;;;7.33;;
79261;SDS011;68699;48.220;16.358;2023-07-24T06:22:03;9.00;;;7.33;;
79261;SDS011;68699;48.220;16.358;2023-07-24T06:24:29;9.87;;;7.50;;
79261;SDS011;68699;48.220;16.358;2023-07-24T06:26:55;12.87;;;8.10;;
79261;SDS011;68699;48.220;16.358;2023-07-24T06:29:21;8.07;;;7.27;;
79261;SDS011;68699;48.220;16.358;2023-07-24T06:31:47;9.10;;;7.67;;
79261;SDS011;68699;48.220;16.358;2023-07-24T06:34:14;9.10;;;7.43;;
79261;SDS011;68699;48.220;16.358;2023-07-24T06:36:41;8.97;;;7.30;;
79261;SDS011;68699;48.220;16.358;2023-07-24T06:39:07;7.93;;;7.13;;
79261;SDS011;68699;48.220;16.358;2023-07-24T06:41:33;7.40;;;6.70;;
79261;SDS011;68699;48.220;16.358;2023-07-24T06:43:59;8.23;;;7.28;;
79261;SDS011;68699;48.220;16.358;2023-07-24T06:46:25;8.77;;;7.80;;
79261;SDS011;68699;48.220;16.358;2023-07-24T06:48:50;10.43;;;7.50;;
79261;SDS011;68699;48.220;16.358;2023-07-24T06:51:16;8.50;;;7.22;;
79261;SDS011;68699;48.220;16.358;2023-07-24T06:53:42;7.97;;;6.97;;
79261;SDS011;68699;48.220;16.358;2023-07-24T06:56:08;10.15;;;7.63;;
79261;SDS011;68699;48.220;16.358;2023-07-24T06:58:34;8.95;;;7.18;;
79261;SDS011;68699;48.220;16.358;2023-07-24T07:01:04;8.23;;;6.93;;
79261;SDS011;68699;48.220;16.358;2023-07-24T07:03:30;9.32;;;7.38;;
79261;SDS011;68699;48.220;16.358;2023-07-24T07:05:59;10.20;;;7.82;;
79261;SDS011;68699;48.220;16.358;2023-07-24T07:08:25;7.78;;;7.07;;
79261;SDS011;68699;48.220;16.358;2023-07-24T07:10:58;8.40;;;7.60;;
79261;SDS011;68699;48.220;16.358;2023-07-24T07:13:24;9.05;;;7.57;;
79261;SDS011;68699;48.220;16.358;2023-07-24T07:15:50;8.50;;;7.60;;
79261;SDS011;68699;48.220;16.358;2023-07-24T07:18:16;8.55;;;7.65;;
79261;SDS011;68699;48.220;16.358;2023-07-24T07:20:49;9.73;;;7.85;;
79261;SDS011;68699;48.220;16.358;2023-07-24T07:23:15;8.65;;;7.20;;
79261;SDS011;68699;48.220;16.358;2023-07-24T07:25:41;7.78;;;7.00;;
79261;SDS011;68699;48.220;16.358;2023-07-24T07:28:11;7.55;;;6.75;;
79261;SDS011;68699;48.220;16.358;2023-07-24T07:30:37;11.90;;;7.13;;
79261;SDS011;68699;48.220;16.358;2023-07-24T07:33:03;9.57;;;7.13;;
79261;SDS011;68699;48.220;16.358;2023-07-24T07:35:34;8.95;;;6.82;;
79261;SDS011;68699;48.220;16.358;2023-07-24T07:38:00;7.20;;;6.60;;
79261;SDS011;68699;48.220;16.358;2023-07-24T07:40:26;9.32;;;7.18;;
79261;SDS011;68699;48.220;16.358;2023-07-24T07:42:53;7.78;;;6.93;;
79261;SDS011;68699;48.220;16.358;2023-07-24T07:45:19;7.47;;;6.68;;
79261;SDS011;68699;48.220;16.358;2023-07-24T07:47:45;8.35;;;7.13;;
79261;SDS011;68699;48.220;16.358;2023-07-24T07:50:11;8.40;;;7.47;;
79261;SDS011;68699;48.220;16.358;2023-07-24T07:52:37;9.60;;;8.02;;
79261;SDS011;68699;48.220;16.358;2023-07-24T07:55:03;8.25;;;7.30;;
79261;SDS011;68699;48.220;16.358;2023-07-24T07:57:31;8.82;;;6.95;;
79261;SDS011;68699;48.220;16.358;2023-07-24T07:59:57;9.68;;;7.25;;
79261;SDS011;68699;48.220;16.358;2023-07-24T08:02:23;8.32;;;6.72;;
79261;SDS011;68699;48.220;16.358;2023-07-24T08:04:49;8.20;;;6.80;;
79261;SDS011;68699;48.220;16.358;2023-07-24T08:07:15;8.98;;;7.20;;
79261;SDS011;68699;48.220;16.358;2023-07-24T08:09:41;9.75;;;7.78;;
79261;SDS011;68699;48.220;16.358;2023-07-24T08:12:07;7.88;;;6.95;;
79261;SDS011;68699;48.220;16.358;2023-07-24T08:14:33;8.07;;;7.05;;
79261;SDS011;68699;48.220;16.358;2023-07-24T08:16:59;8.38;;;7.20;;
79261;SDS011;68699;48.220;16.358;2023-07-24T08:19:27;9.27;;;7.13;;
79261;SDS011;68699;48.220;16.358;2023-07-24T08:21:54;7.32;;;6.63;;
79261;SDS011;68699;48.220;16.358;2023-07-24T08:24:20;7.72;;;6.93;;
79261;SDS011;68699;48.220;16.358;2023-07-24T08:26:46;8.93;;;7.70;;
79261;SDS011;68699;48.220;16.358;2023-07-24T08:29:12;9.30;;;7.72;;
79261;SDS011;68699;48.220;16.358;2023-07-24T08:31:38;8.13;;;6.97;;
79261;SDS011;68699;48.220;16.358;2023-07-24T08:34:04;9.48;;;7.57;;
79261;SDS011;68699;48.220;16.358;2023-07-24T08:36:30;8.07;;;7.28;;
79261;SDS011;68699;48.220;16.358;2023-07-24T08:38:57;9.00;;;7.68;;
79261;SDS011;68699;48.220;16.358;2023-07-24T08:41:23;8.40;;;6.70;;
79261;SDS011;68699;48.220;16.358;2023-07-24T08:43:49;9.98;;;8.13;;
79261;SDS011;68699;48.220;16.358;2023-07-24T08:46:17;7.95;;;6.97;;
79261;SDS011;68699;48.220;16.358;2023-07-24T08:48:43;10.43;;;7.28;;
79261;SDS011;68699;48.220;16.358;2023-07-24T08:51:13;9.20;;;7.00;;
79261;SDS011;68699;48.220;16.358;2023-07-24T08:53:41;8.73;;;6.50;;
79261;SDS011;68699;48.220;16.358;2023-07-24T08:56:08;9.00;;;6.80;;
79261;SDS011;68699;48.220;16.358;2023-07-24T08:58:35;7.13;;;6.50;;
79261;SDS011;68699;48.220;16.358;2023-07-24T09:01:02;7.35;;;6.18;;
79261;SDS011;68699;48.220;16.358;2023-07-24T09:03:28;10.43;;;7.07;;
79261;SDS011;68699;48.220;16.358;2023-07-24T09:05:54;7.32;;;6.72;;
79261;SDS011;68699;48.220;16.358;2023-07-24T09:08:36;8.10;;;7.15;;
79261;SDS011;68699;48.220;16.358;2023-07-24T09:11:03;9.93;;;7.13;;
79261;SDS011;68699;48.220;16.358;2023-07-24T09:13:29;13.73;;;7.35;;
79261;SDS011;68699;48.220;16.358;2023-07-24T09:15:55;8.27;;;6.88;;
79261;SDS011;68699;48.220;16.358;2023-07-24T09:18:21;7.78;;;7.00;;
79261;SDS011;68699;48.220;16.358;2023-07-24T09:20:48;7.93;;;7.00;;
79261;SDS011;68699;48.220;16.358;2023-07-24T09:23:14;9.63;;;7.35;;
79261;SDS011;68699;48.220;16.358;2023-07-24T09:25:41;8.60;;;7.28;;
79261;SDS011;68699;48.220;16.358;2023-07-24T09:28:11;9.30;;;7.22;;
79261;SDS011;68699;48.220;16.358;2023-07-24T09:30:37;7.82;;;7.18;;
79261;SDS011;68699;48.220;16.358;2023-07-24T09:33:03;8.38;;;6.72;;
79261;SDS011;68699;48.220;16.358;2023-07-24T09:35:30;7.75;;;7.05;;
79261;SDS011;68699;48.220;16.358;2023-07-24T09:38:06;7.82;;;6.97;;
79261;SDS011;68699;48.220;16.358;2023-07-24T09:40:42;7.60;;;7.00;;
79261;SDS011;68699;48.220;16.358;2023-07-24T09:43:18;10.10;;;7.22;;
79261;SDS011;68699;48.220;16.358;2023-07-24T09:45:44;7.75;;;6.82;;
79261;SDS011;68699;48.220;16.358;2023-07-24T09:48:11;8.40;;;7.55;;
79261;SDS011;68699;48.220;16.358;2023-07-24T09:50:39;8.18;;;7.13;;
79261;SDS011;68699;48.220;16.358;2023-07-24T09:53:05;9.95;;;7.43;;
79261;SDS011;68699;48.220;16.358;2023-07-24T09:55:39;8.90;;;7.93;;
79261;SDS011;68699;48.220;16.358;2023-07-24T09:58:08;7.45;;;6.60;;
79261;SDS011;68699;48.220;16.358;2023-07-24T10:00:34;8.82;;;7.60;;
79261;SDS011;68699;48.220;16.358;2023-07-24T10:03:00;8.30;;;6.72;;
79261;SDS011;68699;48.220;16.358;2023-07-24T10:05:27;8.35;;;7.28;;
79261;SDS011;68699;48.220;16.358;2023-07-24T10:07:53;7.43;;;6.72;;
79261;SDS011;68699;48.220;16.358;2023-07-24T10:10:20;8.25;;;6.88;;
79261;SDS011;68699;48.220;16.358;2023-07-24T10:12:46;8.23;;;6.45;;
79261;SDS011;68699;48.220;16.358;2023-07-24T10:15:13;7.50;;;6.82;;
79261;SDS011;68699;48.220;16.358;2023-07-24T10:17:40;7.53;;;6.90;;
79261;SDS011;68699;48.220;16.358;2023-07-24T10:20:10;8.30;;;7.50;;
79261;SDS011;68699;48.220;16.358;2023-07-24T10:22:36;7.97;;;7.07;;
79261;SDS011;68699;48.220;16.358;2023-07-24T10:25:06;7.78;;;6.68;;
79261;SDS011;68699;48.220;16.358;2023-07-24T10:27:35;7.30;;;6.63;;
79261;SDS011;68699;48.220;16.358;2023-07-24T10:30:02;9.20;;;7.80;;
79261;SDS011;68699;48.220;16.358;2023-07-24T10:32:29;7.85;;;7.15;;
79261;SDS011;68699;48.220;16.358;2023-07-24T10:34:55;7.93;;;7.22;;
79261;SDS011;68699;48.220;16.358;2023-07-24T10:37:30;8.07;;;7.18;;
79261;SDS011;68699;48.220;16.358;2023-07-24T10:39:56;7.97;;;6.97;;
79261;SDS011;68699;48.220;16.358;2023-07-24T10:42:22;7.18;;;6.50;;
79261;SDS011;68699;48.220;16.358;2023-07-24T10:44:48;7.78;;;7.07;;
79261;SDS011;68699;48.220;16.358;2023-07-24T10:47:15;7.88;;;7.18;;
79261;SDS011;68699;48.220;16.358;2023-07-24T10:49:47;9.10;;;6.90;;
79261;SDS011;68699;48.220;16.358;2023-07-24T10:52:14;7.95;;;7.18;;
79261;SDS011;68699;48.220;16.358;2023-07-24T10:54:40;8.27;;;7.57;;
79261;SDS011;68699;48.220;16.358;2023-07-24T10:57:06;8.13;;;7.10;;
79261;SDS011;68699;48.220;16.358;2023-07-24T10:59:35;9.13;;;7.60;;
79261;SDS011;68699;48.220;16.358;2023-07-24T11:02:01;8.50;;;7.75;;
79261;SDS011;68699;48.220;16.358;2023-07-24T11:04:29;10.73;;;6.90;;
79261;SDS011;68699;48.220;16.358;2023-07-24T11:06:55;10.43;;;7.68;;
79261;SDS011;68699;48.220;16.358;2023-07-24T11:09:22;8.63;;;7.70;;
79261;SDS011;68699;48.220;16.358;2023-07-24T11:11:49;9.70;;;7.35;;
79261;SDS011;68699;48.220;16.358;2023-07-24T11:14:16;7.68;;;6.97;;
79261;SDS011;68699;48.220;16.358;2023-07-24T11:16:49;8.23;;;7.43;;
79261;SDS011;68699;48.220;16.358;2023-07-24T11:19:22;8.43;;;7.13;;
79261;SDS011;68699;48.220;16.358;2023-07-24T11:21:48;8.20;;;7.43;;
79261;SDS011;68699;48.220;16.358;2023-07-24T11:24:14;9.93;;;7.68;;
79261;SDS011;68699;48.220;16.358;2023-07-24T11:26:40;10.85;;;8.13;;
79261;SDS011;68699;48.220;16.358;2023-07-24T11:29:10;8.90;;;7.97;;
79261;SDS011;68699;48.220;16.358;2023-07-24T11:31:37;12.27;;;8.20;;
79261;SDS011;68699;48.220;16.358;2023-07-24T11:34:03;9.60;;;7.85;;
79261;SDS011;68699;48.220;16.358;2023-07-24T11:36:29;11.05;;;7.85;;
79261;SDS011;68699;48.220;16.358;2023-07-24T11:38:55;8.73;;;7.88;;
79261;SDS011;68699;48.220;16.358;2023-07-24T11:41:21;8.85;;;7.63;;
79261;SDS011;68699;48.220;16.358;2023-07-24T11:43:48;8.82;;;7.80;;
79261;SDS011;68699;48.220;16.358;2023-07-24T11:46:24;8.80;;;7.88;;
79261;SDS011;68699;48.220;16.358;2023-07-24T11:48:50;12.52;;;9.18;;
79261;SDS011;68699;48.220;16.358;2023-07-24T11:51:18;10.10;;;8.35;;
79261;SDS011;68699;48.220;16.358;2023-07-24T11:53:45;9.32;;;7.47;;
79261;SDS011;68699;48.220;16.358;2023-07-24T11:56:14;9.82;;;7.82;;
79261;SDS011;68699;48.220;16.358;2023-07-24T11:58:41;11.35;;;8.70;;
79261;SDS011;68699;48.220;16.358;2023-07-24T12:01:07;8.82;;;7.95;;
79261;SDS011;68699;48.220;16.358;2023-07-24T12:03:33;8.93;;;8.13;;
79261;SDS011;68699;48.220;16.358;2023-07-24T12:05:59;10.25;;;8.35;;
79261;SDS011;68699;48.220;16.358;2023-07-24T12:08:31;8.57;;;7.75;;
79261;SDS011;68699;48.220;16.358;2023-07-24T12:10:58;9.25;;;8.30;;
79261;SDS011;68699;48.220;16.358;2023-07-24T12:13:24;9.32;;;8.07;;
79261;SDS011;68699;48.220;16.358;2023-07-24T12:15:50;10.57;;;7.63;;
79261;SDS011;68699;48.220;16.358;2023-07-24T12:18:16;9.95;;;8.15;;
79261;SDS011;68699;48.220;16.358;2023-07-24T12:20:42;11.02;;;8.45;;
79261;SDS011;68699;48.220;16.358;2023-07-24T12:23:08;9.23;;;8.32;;
79261;SDS011;68699;48.220;16.358;2023-07-24T12:25:34;9.98;;;8.98;;
79261;SDS011;68699;48.220;16.358;2023-07-24T12:28:00;9.52;;;8.20;;
79261;SDS011;68699;48.220;16.358;2023-07-24T12:30:27;9.40;;;8.50;;
79261;SDS011;68699;48.220;16.358;2023-07-24T12:32:53;9.93;;;8.27;;
79261;SDS011;68699;48.220;16.358;2023-07-24T12:35:19;9.82;;;8.80;;
79261;SDS011;68699;48.220;16.358;2023-07-24T12:37:45;10.57;;;8.52;;
79261;SDS011;68699;48.220;16.358;2023-07-24T12:40:11;10.98;;;8.68;;
79261;SDS011;68699;48.220;16.358;2023-07-24T12:42:37;9.35;;;8.50;;
79261;SDS011;68699;48.220;16.358;2023-07-24T12:45:03;9.93;;;8.82;;
79261;SDS011;68699;48.220;16.358;2023-07-24T12:47:30;14.48;;;8.90;;
79261;SDS011;68699;48.220;16.358;2023-07-24T12:49:56;9.25;;;8.35;;
79261;SDS011;68699;48.220;16.358;2023-07-24T12:52:24;10.20;;;8.68;;
79261;SDS011;68699;48.220;16.358;2023-07-24T12:54:50;10.65;;;9.57;;
79261;SDS011;68699;48.220;16.358;2023-07-24T12:57:16;12.77;;;9.73;;
79261;SDS011;68699;48.220;16.358;2023-07-24T12:59:42;11.65;;;9.70;;
79261;SDS011;68699;48.220;16.358;2023-07-24T13:02:08;10.15;;;9.25;;
79261;SDS011;68699;48.220;16.358;2023-07-24T13:04:34;11.20;;;9.90;;
79261;SDS011;68699;48.220;16.358;2023-07-24T13:07:00;11.10;;;10.10;;
79261;SDS011;68699;48.220;16.358;2023-07-24T13:09:27;11.45;;;10.25;;
79261;SDS011;68699;48.220;16.358;2023-07-24T13:11:54;11.52;;;10.15;;
79261;SDS011;68699;48.220;16.358;2023-07-24T13:14:20;11.52;;;10.43;;
79261;SDS011;68699;48.220;16.358;2023-07-24T13:16:48;11.95;;;10.05;;
79261;SDS011;68699;48.220;16.358;2023-07-24T13:19:14;10.80;;;9.80;;
79261;SDS011;68699;48.220;16.358;2023-07-24T13:21:40;10.82;;;9.73;;
79261;SDS011;68699;48.220;16.358;2023-07-24T13:24:07;10.07;;;9.18;;
79261;SDS011;68699;48.220;16.358;2023-07-24T13:26:33;11.05;;;9.98;;
79261;SDS011;68699;48.220;16.358;2023-07-24T13:29:00;10.30;;;9.40;;
79261;SDS011;68699;48.220;16.358;2023-07-24T13:31:26;10.43;;;9.20;;
79261;SDS011;68699;48.220;16.358;2023-07-24T13:33:53;11.63;;;10.15;;
79261;SDS011;68699;48.220;16.358;2023-07-24T13:36:19;10.65;;;9.35;;
79261;SDS011;68699;48.220;16.358;2023-07-24T13:38:46;11.15;;;9.40;;
79261;SDS011;68699;48.220;16.358;2023-07-24T13:41:13;12.32;;;10.02;;
79261;SDS011;68699;48.220;16.358;2023-07-24T13:43:39;10.98;;;9.77;;
79261;SDS011;68699;48.220;16.358;2023-07-24T13:46:05;10.32;;;9.32;;
79261;SDS011;68699;48.220;16.358;2023-07-24T13:48:33;11.93;;;10.73;;
79261;SDS011;68699;48.220;16.358;2023-07-24T13:50:59;12.70;;;9.82;;
79261;SDS011;68699;48.220;16.358;2023-07-24T13:53:25;11.40;;;9.75;;
79261;SDS011;68699;48.220;16.358;2023-07-24T13:55:51;11.57;;;9.63;;
79261;SDS011;68699;48.220;16.358;2023-07-24T13:58:17;12.95;;;9.57;;
79261;SDS011;68699;48.220;16.358;2023-07-24T14:00:44;11.18;;;10.02;;
79261;SDS011;68699;48.220;16.358;2023-07-24T14:03:10;11.68;;;9.43;;
79261;SDS011;68699;48.220;16.358;2023-07-24T14:05:37;11.32;;;9.93;;
79261;SDS011;68699;48.220;16.358;2023-07-24T14:08:04;11.00;;;10.00;;
79261;SDS011;68699;48.220;16.358;2023-07-24T14:10:30;10.68;;;9.55;;
79261;SDS011;68699;48.220;16.358;2023-07-24T14:12:56;10.45;;;9.30;;
79261;SDS011;68699;48.220;16.358;2023-07-24T14:15:23;10.40;;;9.32;;
79261;SDS011;68699;48.220;16.358;2023-07-24T14:17:49;10.10;;;9.13;;
79261;SDS011;68699;48.220;16.358;2023-07-24T14:20:15;10.13;;;9.15;;
79261;SDS011;68699;48.220;16.358;2023-07-24T14:22:41;12.77;;;10.60;;
79261;SDS011;68699;48.220;16.358;2023-07-24T14:25:08;12.85;;;9.93;;
79261;SDS011;68699;48.220;16.358;2023-07-24T14:27:34;13.98;;;10.30;;
79261;SDS011;68699;48.220;16.358;2023-07-24T14:30:00;11.05;;;9.95;;
79261;SDS011;68699;48.220;16.358;2023-07-24T14:32:27;10.63;;;9.68;;